createdAt,value
2019-01-25T00:00:16.407Z,-2.00
2019-01-25T00:02:44.635Z,-2.00
2019-01-25T00:05:12.839Z,-1.90
2019-01-25T00:07:41.048Z,-1.80
2019-01-25T00:10:09.736Z,-1.80
2019-01-25T00:12:37.931Z,-1.90
2019-01-25T00:15:09.072Z,-1.90
2019-01-25T00:17:37.282Z,-1.90
2019-01-25T00:20:10.730Z,-1.90
2019-01-25T00:22:38.978Z,-1.90
2019-01-25T00:25:07.261Z,-1.80
2019-01-25T00:27:35.572Z,-1.80
2019-01-25T00:30:08.787Z,-1.80
2019-01-25T00:32:36.995Z,-1.90
2019-01-25T00:35:06.044Z,-2.00
2019-01-25T00:37:34.244Z,-1.90
2019-01-25T00:40:06.404Z,-1.80
2019-01-25T00:42:32.460Z,-1.90
2019-01-25T00:45:00.659Z,-1.90
2019-01-25T00:47:28.939Z,-1.90
2019-01-25T00:49:57.154Z,-1.90
2019-01-25T00:52:25.359Z,-1.90
2019-01-25T00:54:53.572Z,-1.90
2019-01-25T00:57:21.787Z,-1.80
2019-01-25T00:59:49.986Z,-1.90
2019-01-25T01:02:18.191Z,-1.90
2019-01-25T01:04:46.399Z,-1.80
2019-01-25T01:07:14.601Z,-1.90
2019-01-25T01:09:42.816Z,-1.90
2019-01-25T01:12:11.016Z,-1.90
2019-01-25T01:14:39.232Z,-1.90
2019-01-25T01:17:26.875Z,-1.90
2019-01-25T01:20:15.595Z,-1.80
2019-01-25T01:22:43.803Z,-1.70
2019-01-25T01:25:12.755Z,-1.80
2019-01-25T01:27:40.959Z,-1.80
2019-01-25T01:30:12.475Z,-1.70
2019-01-25T01:32:40.683Z,-1.70
2019-01-25T01:35:08.959Z,-1.70
2019-01-25T01:37:37.168Z,-1.80
2019-01-25T01:40:08.640Z,-1.70
2019-01-25T01:42:36.856Z,-1.80
2019-01-25T01:45:07.011Z,-1.80
2019-01-25T01:47:35.219Z,-1.80
2019-01-25T01:50:06.035Z,-1.70
2019-01-25T01:52:34.236Z,-1.80
2019-01-25T01:55:02.447Z,-1.80
2019-01-25T01:57:30.655Z,-1.80
2019-01-25T01:59:58.860Z,-1.80
2019-01-25T02:02:27.077Z,-1.70
2019-01-25T02:04:55.267Z,-1.70
2019-01-25T02:07:24.164Z,-1.80
2019-01-25T02:09:52.363Z,-1.80
2019-01-25T02:12:20.643Z,-1.80
2019-01-25T02:14:48.847Z,-1.80
2019-01-25T02:17:17.039Z,-1.70
2019-01-25T02:19:45.244Z,-1.70
2019-01-25T02:22:13.450Z,-1.70
2019-01-25T02:24:41.668Z,-1.70
2019-01-25T02:27:09.868Z,-1.60
2019-01-25T02:29:38.075Z,-1.70
2019-01-25T02:32:06.280Z,-1.70
2019-01-25T02:34:34.487Z,-1.70
2019-01-25T02:37:02.764Z,-1.70
2019-01-25T02:39:30.995Z,-1.70
2019-01-25T02:41:59.190Z,-1.60
2019-01-25T02:44:27.391Z,-1.60
2019-01-25T02:46:55.603Z,-1.50
2019-01-25T02:49:23.807Z,-1.50
2019-01-25T02:51:52.019Z,-1.60
2019-01-25T02:54:20.223Z,-1.60
2019-01-25T02:56:48.459Z,-1.70
2019-01-25T02:59:16.646Z,-1.60
2019-01-25T03:01:44.842Z,-1.60
2019-01-25T03:04:13.051Z,-1.50
2019-01-25T03:06:41.244Z,-1.50
2019-01-25T03:09:09.621Z,-1.40
2019-01-25T03:11:37.831Z,-1.50
2019-01-25T03:14:06.039Z,-1.50
2019-01-25T03:16:34.241Z,-1.50
2019-01-25T03:19:02.448Z,-1.60
2019-01-25T03:21:30.651Z,-1.50
2019-01-25T03:23:58.863Z,-1.40
2019-01-25T03:26:27.069Z,-1.40
2019-01-25T03:28:55.280Z,-1.50
2019-01-25T03:31:23.491Z,-1.50
2019-01-25T03:33:51.701Z,-1.60
2019-01-25T03:36:19.911Z,-1.50
2019-01-25T03:38:48.109Z,-1.50
2019-01-25T03:41:16.320Z,-1.40
2019-01-25T03:43:44.528Z,-1.30
2019-01-25T03:46:12.735Z,-1.20
2019-01-25T03:48:40.948Z,-1.30
2019-01-25T03:51:09.152Z,-1.40
2019-01-25T03:53:37.355Z,-1.30
2019-01-25T03:56:05.566Z,-1.20
2019-01-25T03:58:33.764Z,-1.30
2019-01-25T04:01:01.988Z,-1.30
2019-01-25T04:03:30.264Z,-1.30
2019-01-25T04:05:58.486Z,-1.30
2019-01-25T04:08:26.680Z,-1.30
2019-01-25T04:11:03.097Z,-1.30
2019-01-25T04:13:24.814Z,-1.30
2019-01-25T04:15:53.021Z,-1.10
2019-01-25T04:18:21.223Z,-1.10
2019-01-25T04:20:49.439Z,-1.10
2019-01-25T04:23:17.652Z,-1.10
2019-01-25T04:25:45.852Z,-1.10
2019-01-25T04:28:14.080Z,-1.20
2019-01-25T04:30:42.279Z,-1.20
2019-01-25T04:33:10.491Z,-1.20
2019-01-25T04:35:38.692Z,-1.20
2019-01-25T04:38:06.917Z,-1.20
2019-01-25T04:40:35.119Z,-1.20
2019-01-25T04:43:03.321Z,-1.20
2019-01-25T04:45:31.537Z,-1.10
2019-01-25T04:47:59.728Z,-1.10
2019-01-25T04:50:27.945Z,-1.00
2019-01-25T04:52:56.143Z,-1.10
2019-01-25T04:55:28.932Z,-1.10
2019-01-25T04:58:11.967Z,-1.20
2019-01-25T05:00:40.173Z,-1.10
2019-01-25T05:03:08.367Z,-1.00
2019-01-25T05:05:36.571Z,-1.10
2019-01-25T05:08:10.998Z,-1.20
2019-01-25T05:10:39.207Z,-1.10
2019-01-25T05:13:07.413Z,-1.10
2019-01-25T05:15:35.622Z,-1.00
2019-01-25T05:18:03.896Z,-1.00
2019-01-25T05:20:32.091Z,-1.00
2019-01-25T05:23:03.148Z,-1.00
2019-01-25T05:25:31.341Z,-1.10
2019-01-25T05:28:09.753Z,-1.10
2019-01-25T05:30:58.500Z,-1.10
2019-01-25T05:33:26.715Z,-1.10
2019-01-25T05:35:54.929Z,-1.10
2019-01-25T05:38:23.132Z,-1.10
2019-01-25T05:40:51.331Z,-1.10
2019-01-25T05:43:19.528Z,-1.00
2019-01-25T05:45:47.751Z,-1.00
2019-01-25T05:48:15.975Z,-1.10
2019-01-25T05:50:44.175Z,-1.10
2019-01-25T05:53:12.391Z,-1.10
2019-01-25T05:55:40.599Z,-1.10
2019-01-25T05:58:10.136Z,-1.10
2019-01-25T06:00:39.979Z,-1.00
2019-01-25T06:03:13.496Z,-0.90
2019-01-25T06:05:41.759Z,-0.80
2019-01-25T06:08:13.351Z,-0.70
2019-01-25T06:10:41.551Z,-0.60
2019-01-25T06:13:10.027Z,-0.60
2019-01-25T06:15:38.271Z,-0.50
2019-01-25T06:18:06.488Z,-0.50
2019-01-25T06:20:34.687Z,-0.50
2019-01-25T06:23:02.899Z,-0.40
2019-01-25T06:25:31.113Z,-0.30
2019-01-25T06:27:59.404Z,-0.30
2019-01-25T06:30:27.615Z,-0.20
2019-01-25T06:32:55.815Z,-0.20
2019-01-25T06:35:26.008Z,-0.10
2019-01-25T06:37:54.396Z,-0.10
2019-01-25T06:40:22.595Z,0.00
2019-01-25T06:42:50.795Z,0.10
2019-01-25T06:45:19.003Z,0.10
2019-01-25T06:47:47.207Z,0.10
2019-01-25T06:50:15.412Z,0.10
2019-01-25T06:52:43.611Z,0.20
2019-01-25T06:55:11.807Z,0.30
2019-01-25T06:57:44.615Z,0.30
2019-01-25T07:00:17.732Z,0.30
2019-01-25T07:02:45.939Z,0.40
2019-01-25T07:05:14.131Z,0.40
2019-01-25T07:07:43.600Z,0.30
2019-01-25T07:10:14.743Z,0.30
2019-01-25T07:12:42.935Z,0.30
2019-01-25T07:15:13.155Z,0.40
2019-01-25T07:17:41.350Z,0.40
2019-01-25T07:20:14.511Z,0.40
2019-01-25T07:22:42.707Z,0.40
2019-01-25T07:25:15.310Z,0.40
2019-01-25T07:27:43.528Z,0.40
2019-01-25T07:30:17.875Z,0.40
2019-01-25T07:32:46.103Z,0.50
2019-01-25T07:35:14.353Z,0.50
2019-01-25T07:37:42.629Z,0.60
2019-01-25T07:40:11.348Z,0.70
2019-01-25T07:42:39.656Z,0.70
2019-01-25T07:45:14.388Z,0.80
2019-01-25T07:47:43.065Z,0.80
2019-01-25T07:50:12.101Z,0.90
2019-01-25T07:52:40.350Z,0.90
2019-01-25T07:55:11.016Z,0.80
2019-01-25T07:57:39.308Z,0.90
2019-01-25T08:00:15.379Z,1.00
2019-01-25T08:02:43.596Z,1.00
2019-01-25T08:05:11.817Z,1.00
2019-01-25T08:07:40.739Z,1.10
2019-01-25T08:10:15.376Z,1.10
2019-01-25T08:12:43.716Z,1.10
2019-01-25T08:15:15.562Z,1.10
2019-01-25T08:17:43.752Z,1.10
2019-01-25T08:20:13.143Z,1.30
2019-01-25T08:22:41.375Z,1.40
2019-01-25T08:25:09.645Z,1.50
2019-01-25T08:27:37.845Z,1.70
2019-01-25T08:30:23.480Z,1.80
2019-01-25T08:32:51.995Z,1.70
2019-01-25T08:35:20.525Z,1.70
2019-01-25T08:37:48.732Z,1.80
2019-01-25T08:40:17.738Z,1.80
2019-01-25T08:42:45.929Z,1.90
2019-01-25T08:45:15.475Z,2.00
2019-01-25T08:47:43.713Z,2.10
2019-01-25T08:50:15.216Z,2.20
2019-01-25T08:52:43.463Z,2.20
2019-01-25T08:55:11.708Z,2.20
2019-01-25T08:57:39.941Z,2.30
2019-01-25T09:00:16.805Z,2.30
2019-01-25T09:02:45.067Z,2.30
2019-01-25T09:05:13.251Z,2.10
2019-01-25T09:07:41.475Z,1.90
2019-01-25T09:10:12.716Z,1.80
2019-01-25T09:12:40.947Z,1.90
2019-01-25T09:15:12.107Z,2.00
2019-01-25T09:17:40.291Z,2.00
2019-01-25T09:20:14.607Z,2.00
2019-01-25T09:22:42.059Z,2.10
2019-01-25T09:25:10.263Z,2.10
2019-01-25T09:27:38.455Z,2.00
2019-01-25T09:30:09.903Z,2.10
2019-01-25T09:32:38.107Z,2.10
2019-01-25T09:35:07.033Z,2.00
2019-01-25T09:37:35.244Z,1.90
2019-01-25T09:40:04.504Z,1.80
2019-01-25T09:42:32.696Z,1.70
2019-01-25T09:45:00.896Z,1.80
2019-01-25T09:47:29.663Z,1.90
2019-01-25T09:49:57.848Z,2.20
2019-01-25T09:52:26.048Z,2.40
2019-01-25T09:54:54.248Z,2.50
2019-01-25T09:57:22.443Z,2.70
2019-01-25T09:59:50.635Z,3.00
2019-01-25T10:02:18.835Z,3.30
2019-01-25T10:04:47.032Z,3.60
2019-01-25T10:07:15.223Z,3.90
2019-01-25T10:09:43.423Z,4.20
2019-01-25T10:12:11.633Z,4.40
2019-01-25T10:14:39.819Z,4.20
2019-01-25T10:17:08.011Z,4.10
2019-01-25T10:19:36.218Z,4.40
2019-01-25T10:22:04.475Z,5.10
2019-01-25T10:24:32.668Z,6.30
2019-01-25T10:27:00.872Z,7.30
2019-01-25T10:29:29.063Z,7.70
2019-01-25T10:31:57.274Z,7.40
2019-01-25T10:34:25.464Z,7.20
2019-01-25T10:36:53.655Z,6.80
2019-01-25T10:39:21.859Z,6.80
2019-01-25T10:41:50.051Z,6.90
2019-01-25T10:44:18.265Z,7.40
2019-01-25T10:46:46.450Z,7.50
2019-01-25T10:49:14.644Z,7.80
2019-01-25T10:51:42.845Z,8.70
2019-01-25T10:54:11.031Z,9.90
2019-01-25T10:56:41.906Z,10.50
2019-01-25T10:59:09.160Z,10.90
2019-01-25T11:01:37.339Z,9.80
2019-01-25T11:04:05.535Z,8.20
2019-01-25T11:06:33.727Z,7.20
2019-01-25T11:09:01.923Z,6.60
2019-01-25T11:11:30.115Z,6.30
2019-01-25T11:13:58.345Z,6.40
2019-01-25T11:16:26.518Z,6.50
2019-01-25T11:18:54.707Z,6.70
2019-01-25T11:21:22.899Z,6.90
2019-01-25T11:23:51.096Z,7.50
2019-01-25T11:26:19.295Z,7.60
2019-01-25T11:28:47.479Z,7.60
2019-01-25T11:31:15.671Z,8.00
2019-01-25T11:33:43.881Z,7.60
2019-01-25T11:36:12.071Z,6.60
2019-01-25T11:38:40.259Z,5.90
2019-01-25T11:41:08.464Z,6.10
2019-01-25T11:43:36.656Z,7.60
2019-01-25T11:46:04.907Z,8.30
2019-01-25T11:48:33.115Z,8.20
2019-01-25T11:51:01.308Z,7.80
2019-01-25T11:53:29.511Z,8.50
2019-01-25T11:55:57.702Z,10.30
2019-01-25T11:58:25.956Z,12.10
2019-01-25T12:00:54.175Z,12.90
2019-01-25T12:03:22.372Z,12.80
2019-01-25T12:05:50.575Z,12.80
2019-01-25T12:08:18.776Z,12.70
2019-01-25T12:10:46.975Z,13.30
2019-01-25T12:13:16.287Z,13.00
2019-01-25T12:15:44.751Z,12.20
2019-01-25T12:18:12.994Z,12.20
2019-01-25T12:20:41.218Z,11.40
2019-01-25T12:23:09.416Z,10.80
2019-01-25T12:25:37.619Z,9.80
2019-01-25T12:28:05.811Z,9.10
2019-01-25T12:30:38.149Z,8.90
2019-01-25T12:33:07.322Z,8.80
2019-01-25T12:35:37.647Z,8.20
2019-01-25T12:38:05.830Z,8.30
2019-01-25T12:40:34.397Z,8.30
2019-01-25T12:43:02.599Z,8.00
2019-01-25T12:45:31.523Z,8.10
2019-01-25T12:47:59.727Z,8.70
2019-01-25T12:50:39.815Z,9.20
2019-01-25T12:53:09.768Z,9.40
2019-01-25T12:55:38.036Z,9.40
2019-01-25T12:58:06.364Z,8.40
2019-01-25T13:00:34.566Z,7.30
2019-01-25T13:03:02.763Z,6.30
2019-01-25T13:05:30.963Z,5.70
2019-01-25T13:07:59.167Z,5.20
2019-01-25T13:10:28.608Z,5.10
2019-01-25T13:12:56.816Z,5.00
2019-01-25T13:15:25.011Z,5.00
2019-01-25T13:17:53.207Z,5.20
2019-01-25T13:20:27.019Z,5.30
2019-01-25T13:22:55.284Z,5.30
2019-01-25T13:25:23.488Z,5.10
2019-01-25T13:27:51.784Z,5.20
2019-01-25T13:30:24.984Z,5.10
2019-01-25T13:32:53.181Z,5.00
2019-01-25T13:35:21.455Z,4.90
2019-01-25T13:37:49.735Z,4.90
2019-01-25T13:40:20.077Z,5.00
2019-01-25T13:42:48.275Z,4.90
2019-01-25T13:45:20.514Z,5.10
2019-01-25T13:47:48.702Z,5.10
2019-01-25T13:50:30.050Z,5.10
2019-01-25T13:52:58.260Z,5.00
2019-01-25T13:55:26.451Z,4.90
2019-01-25T13:57:54.650Z,4.80
2019-01-25T14:00:27.744Z,4.70
2019-01-25T14:02:55.943Z,4.70
2019-01-25T14:05:24.127Z,4.50
2019-01-25T14:07:52.315Z,4.50
2019-01-25T14:10:31.939Z,4.40
2019-01-25T14:13:19.636Z,4.40
2019-01-25T14:15:47.840Z,4.20
2019-01-25T14:18:16.046Z,4.30
2019-01-25T14:20:44.235Z,4.30
2019-01-25T14:23:12.444Z,4.20
2019-01-25T14:25:40.640Z,4.20
2019-01-25T14:28:08.847Z,4.20
2019-01-25T14:30:38.972Z,4.10
2019-01-25T14:33:07.340Z,3.90
2019-01-25T14:35:35.627Z,3.90
2019-01-25T14:38:03.887Z,3.80
2019-01-25T14:40:32.083Z,3.90
2019-01-25T14:43:00.279Z,3.90
2019-01-25T14:45:28.471Z,3.80
2019-01-25T14:47:56.663Z,3.80
2019-01-25T14:50:27.656Z,3.80
2019-01-25T14:52:55.851Z,3.80
2019-01-25T14:55:24.044Z,3.80
2019-01-25T14:57:52.243Z,3.80
2019-01-25T15:00:20.436Z,3.90
2019-01-25T15:02:48.628Z,3.90
2019-01-25T15:05:18.166Z,3.90
2019-01-25T15:07:46.351Z,3.90
2019-01-25T15:10:20.231Z,3.80
2019-01-25T15:12:48.975Z,3.80
2019-01-25T15:15:17.174Z,3.60
2019-01-25T15:17:45.381Z,3.50
2019-01-25T15:20:16.767Z,3.40
2019-01-25T15:22:44.963Z,3.40
2019-01-25T15:25:13.155Z,3.30
2019-01-25T15:27:41.355Z,3.20
2019-01-25T15:30:15.424Z,3.10
2019-01-25T15:32:43.628Z,3.00
2019-01-25T15:35:13.155Z,2.90
2019-01-25T15:37:42.024Z,2.90
2019-01-25T15:40:12.552Z,2.80
2019-01-25T15:42:40.747Z,2.80
2019-01-25T15:45:11.479Z,2.70
2019-01-25T15:47:39.680Z,2.70
2019-01-25T15:50:23.046Z,2.60
2019-01-25T15:52:51.247Z,2.60
2019-01-25T15:55:19.708Z,2.60
2019-01-25T15:57:47.907Z,2.60
2019-01-25T16:00:18.233Z,2.60
2019-01-25T16:02:46.431Z,2.60
2019-01-25T16:05:16.260Z,2.70
2019-01-25T16:07:44.463Z,2.60
2019-01-25T16:10:15.267Z,2.50
2019-01-25T16:12:43.463Z,2.50
2019-01-25T16:15:14.923Z,2.40
2019-01-25T16:17:43.121Z,2.40
2019-01-25T16:20:13.446Z,2.40
2019-01-25T16:22:41.655Z,2.40
2019-01-25T16:25:12.383Z,2.30
2019-01-25T16:27:40.579Z,2.30
2019-01-25T16:30:12.080Z,2.30
2019-01-25T16:32:40.284Z,2.30
2019-01-25T16:35:09.715Z,2.30
2019-01-25T16:37:37.907Z,2.30
2019-01-25T16:40:09.370Z,2.20
2019-01-25T16:42:37.555Z,2.20
2019-01-25T16:45:09.003Z,2.20
2019-01-25T16:47:37.207Z,2.20
2019-01-25T16:50:06.846Z,2.20
2019-01-25T16:52:35.036Z,2.20
2019-01-25T16:55:03.303Z,2.10
2019-01-25T16:57:31.507Z,2.10
2019-01-25T16:59:59.711Z,2.20
2019-01-25T17:02:27.904Z,2.20
2019-01-25T17:04:56.095Z,2.20
2019-01-25T17:07:24.296Z,2.20
2019-01-25T17:09:52.486Z,2.20
2019-01-25T17:12:20.692Z,2.20
2019-01-25T17:14:48.883Z,2.20
2019-01-25T17:17:17.075Z,2.20
2019-01-25T17:19:45.278Z,2.10
2019-01-25T17:22:13.467Z,2.10
2019-01-25T17:24:41.656Z,2.10
2019-01-25T17:27:09.863Z,2.10
2019-01-25T17:29:38.054Z,2.10
2019-01-25T17:32:06.823Z,2.20
2019-01-25T17:34:35.017Z,2.20
2019-01-25T17:37:03.203Z,2.10
2019-01-25T17:39:31.411Z,2.10
2019-01-25T17:41:59.593Z,2.20
2019-01-25T17:44:27.783Z,2.20
2019-01-25T17:46:55.979Z,2.20
2019-01-25T17:49:24.178Z,2.20
2019-01-25T17:51:52.367Z,2.20
2019-01-25T17:54:20.595Z,2.10
2019-01-25T17:56:48.783Z,2.10
2019-01-25T17:59:16.976Z,2.20
2019-01-25T18:01:45.170Z,2.20
2019-01-25T18:04:13.363Z,2.20
2019-01-25T18:06:41.563Z,2.20
2019-01-25T18:09:09.764Z,2.20
2019-01-25T18:11:57.379Z,2.20
2019-01-25T18:14:25.584Z,2.20
2019-01-25T18:16:54.343Z,2.30
2019-01-25T18:19:22.535Z,2.30
2019-01-25T18:21:50.734Z,2.30
2019-01-25T18:24:18.923Z,2.30
2019-01-25T18:26:47.116Z,2.30
2019-01-25T18:29:15.319Z,2.30
2019-01-25T18:31:43.516Z,2.30
2019-01-25T18:34:11.721Z,2.30
2019-01-25T18:36:39.928Z,2.30
2019-01-25T18:39:08.132Z,2.30
2019-01-25T18:41:36.307Z,2.30
2019-01-25T18:44:04.575Z,2.30
2019-01-25T18:46:32.775Z,2.40
2019-01-25T18:49:00.963Z,2.30
2019-01-25T18:51:29.154Z,2.40
2019-01-25T18:53:57.351Z,2.30
2019-01-25T18:56:25.539Z,2.40
2019-01-25T18:58:53.817Z,2.40
2019-01-25T19:01:22.003Z,2.40
2019-01-25T19:03:50.730Z,2.40
2019-01-25T19:06:18.966Z,2.40
2019-01-25T19:08:47.171Z,2.40
2019-01-25T19:11:15.363Z,2.40
2019-01-25T19:13:43.556Z,2.40
2019-01-25T19:16:11.750Z,2.50
2019-01-25T19:18:39.943Z,2.50
2019-01-25T19:21:08.411Z,2.50
2019-01-25T19:23:36.606Z,2.50
2019-01-25T19:26:04.805Z,2.50
2019-01-25T19:28:32.999Z,2.50
2019-01-25T19:31:01.276Z,2.60
2019-01-25T19:33:29.483Z,2.60
2019-01-25T19:35:57.679Z,2.60
2019-01-25T19:38:25.871Z,2.60
2019-01-25T19:40:54.071Z,2.70
2019-01-25T19:43:22.269Z,2.60
2019-01-25T19:45:50.459Z,2.60
2019-01-25T19:48:18.651Z,2.70
2019-01-25T19:50:46.843Z,2.70
2019-01-25T19:53:15.078Z,2.70
2019-01-25T19:55:43.311Z,2.80
2019-01-25T19:58:13.667Z,2.80
2019-01-25T20:00:44.459Z,2.80
2019-01-25T20:03:12.649Z,2.80
2019-01-25T20:05:40.848Z,2.90
2019-01-25T20:08:09.113Z,2.90
2019-01-25T20:10:37.332Z,3.00
2019-01-25T20:13:06.359Z,2.90
2019-01-25T20:15:34.560Z,3.00
2019-01-25T20:18:03.591Z,2.90
2019-01-25T20:20:34.699Z,3.00
2019-01-25T20:23:02.905Z,2.90
2019-01-25T20:25:31.087Z,3.00
2019-01-25T20:27:59.759Z,3.00
2019-01-25T20:30:33.900Z,3.00
2019-01-25T20:33:03.839Z,3.00
2019-01-25T20:35:43.153Z,3.00
2019-01-25T20:38:11.359Z,3.00
2019-01-25T20:40:39.619Z,3.00
2019-01-25T20:43:07.807Z,3.00
2019-01-25T20:45:40.551Z,3.00
2019-01-25T20:48:09.108Z,3.10
2019-01-25T20:50:38.159Z,3.10
2019-01-25T20:53:08.840Z,3.10
2019-01-25T20:55:37.038Z,3.10
2019-01-25T20:58:05.515Z,3.10
2019-01-25T21:00:35.480Z,3.10
2019-01-25T21:03:04.024Z,3.10
2019-01-25T21:05:32.223Z,3.10
2019-01-25T21:08:00.415Z,3.20
2019-01-25T21:10:28.609Z,3.20
2019-01-25T21:12:56.807Z,3.30
2019-01-25T21:15:34.816Z,3.30
2019-01-25T21:17:57.296Z,3.40
2019-01-25T21:20:40.022Z,3.40
2019-01-25T21:23:08.207Z,3.30
2019-01-25T21:25:36.411Z,3.30
2019-01-25T21:28:05.344Z,3.30
2019-01-25T21:30:37.120Z,3.20
2019-01-25T21:33:06.307Z,3.30
2019-01-25T21:35:34.500Z,3.30
2019-01-25T21:38:02.687Z,3.30
2019-01-25T21:40:32.523Z,3.30
2019-01-25T21:43:00.724Z,3.30
2019-01-25T21:45:30.643Z,3.40
2019-01-25T21:47:58.991Z,3.40
2019-01-25T21:50:30.183Z,3.30
2019-01-25T21:52:58.371Z,3.30
2019-01-25T21:55:26.576Z,3.40
2019-01-25T21:57:54.762Z,3.50
2019-01-25T22:00:25.755Z,3.50
2019-01-25T22:02:53.959Z,3.50
2019-01-25T22:05:22.139Z,3.50
2019-01-25T22:07:50.344Z,3.60
2019-01-25T22:10:27.475Z,3.60
2019-01-25T22:12:55.685Z,3.70
2019-01-25T22:15:23.871Z,3.70
2019-01-25T22:17:52.058Z,3.70
2019-01-25T22:20:22.196Z,3.70
2019-01-25T22:22:50.399Z,3.70
2019-01-25T22:25:18.587Z,3.60
2019-01-25T22:27:48.623Z,3.70
2019-01-25T22:30:19.056Z,3.60
2019-01-25T22:32:47.247Z,3.70
2019-01-25T22:35:15.434Z,3.70
2019-01-25T22:37:43.635Z,3.70
2019-01-25T22:40:20.452Z,3.70
2019-01-25T22:42:48.651Z,3.80
2019-01-25T22:45:21.823Z,3.80
2019-01-25T22:47:50.008Z,3.80
2019-01-25T22:50:23.735Z,3.80
2019-01-25T22:52:51.919Z,3.80
2019-01-25T22:55:21.264Z,3.80
2019-01-25T22:57:49.527Z,3.80
2019-01-25T23:00:51.202Z,3.80
2019-01-25T23:03:34.674Z,3.90
2019-01-25T23:06:22.843Z,3.90
2019-01-25T23:08:51.036Z,3.90
2019-01-25T23:11:19.294Z,4.00
2019-01-25T23:13:47.494Z,4.00
2019-01-25T23:16:15.687Z,4.10
2019-01-25T23:18:44.178Z,4.10
2019-01-25T23:21:12.367Z,4.10
2019-01-25T23:23:40.571Z,4.20
2019-01-25T23:26:08.759Z,4.20
2019-01-25T23:28:36.951Z,4.20
2019-01-25T23:31:05.146Z,4.30
2019-01-25T23:33:33.351Z,4.30
2019-01-25T23:36:01.577Z,4.30
2019-01-25T23:38:29.803Z,4.30
2019-01-25T23:40:58.007Z,4.40
2019-01-25T23:43:26.201Z,4.40
2019-01-25T23:45:54.405Z,4.50
2019-01-25T23:48:22.591Z,4.50
2019-01-25T23:50:50.782Z,4.50
2019-01-25T23:53:18.987Z,4.40
2019-01-25T23:55:47.169Z,4.40
2019-01-25T23:58:15.360Z,4.50
